sensor_id;sensor_type;location;lat;lon;timestamp;P1;durP1;ratioP1;P2;durP2;ratioP2
3131;SDS011;62090;52.330;9.104;2022-12-18T00:02:20;26.70;;;20.05;;
3131;SDS011;62090;52.330;9.104;2022-12-18T00:04:53;26.23;;;18.27;;
3131;SDS011;62090;52.330;9.104;2022-12-18T00:07:24;23.85;;;17.38;;
3131;SDS011;62090;52.330;9.104;2022-12-18T00:09:54;27.95;;;18.00;;
3131;SDS011;62090;52.330;9.104;2022-12-18T00:12:25;27.50;;;18.67;;
3131;SDS011;62090;52.330;9.104;2022-12-18T00:14:57;26.77;;;17.27;;
3131;SDS011;62090;52.330;9.104;2022-12-18T00:20:14;24.73;;;15.45;;
3131;SDS011;62090;52.330;9.104;2022-12-18T00:22:51;18.83;;;13.55;;
3131;SDS011;62090;52.330;9.104;2022-12-18T00:25:25;20.27;;;14.73;;
3131;SDS011;62090;52.330;9.104;2022-12-18T00:30:31;24.02;;;16.15;;
3131;SDS011;62090;52.330;9.104;2022-12-18T00:33:05;25.10;;;17.10;;
3131;SDS011;62090;52.330;9.104;2022-12-18T00:35:38;26.10;;;17.02;;
3131;SDS011;62090;52.330;9.104;2022-12-18T00:38:12;20.85;;;14.50;;
3131;SDS011;62090;52.330;9.104;2022-12-18T00:40:48;22.50;;;15.05;;
3131;SDS011;62090;52.330;9.104;2022-12-18T00:43:20;19.95;;;14.00;;
3131;SDS011;62090;52.330;9.104;2022-12-18T00:45:49;19.85;;;13.35;;
3131;SDS011;62090;52.330;9.104;2022-12-18T00:48:21;18.77;;;13.65;;
3131;SDS011;62090;52.330;9.104;2022-12-18T00:53:31;19.98;;;14.02;;
3131;SDS011;62090;52.330;9.104;2022-12-18T00:56:02;20.65;;;12.35;;
3131;SDS011;62090;52.330;9.104;2022-12-18T00:58:36;18.98;;;12.48;;
3131;SDS011;62090;52.330;9.104;2022-12-18T01:01:07;19.85;;;13.38;;
3131;SDS011;62090;52.330;9.104;2022-12-18T01:03:41;19.58;;;13.93;;
3131;SDS011;62090;52.330;9.104;2022-12-18T01:06:14;21.15;;;13.90;;
3131;SDS011;62090;52.330;9.104;2022-12-18T01:08:45;22.08;;;14.27;;
3131;SDS011;62090;52.330;9.104;2022-12-18T01:11:17;20.83;;;13.55;;
3131;SDS011;62090;52.330;9.104;2022-12-18T01:13:48;17.95;;;12.73;;
3131;SDS011;62090;52.330;9.104;2022-12-18T01:16:21;22.83;;;12.23;;
3131;SDS011;62090;52.330;9.104;2022-12-18T01:18:52;23.42;;;13.45;;
3131;SDS011;62090;52.330;9.104;2022-12-18T01:21:25;20.42;;;12.30;;
3131;SDS011;62090;52.330;9.104;2022-12-18T01:23:56;17.70;;;12.68;;
3131;SDS011;62090;52.330;9.104;2022-12-18T01:26:26;17.05;;;12.20;;
3131;SDS011;62090;52.330;9.104;2022-12-18T01:28:57;19.70;;;13.20;;
3131;SDS011;62090;52.330;9.104;2022-12-18T01:31:29;20.20;;;13.80;;
3131;SDS011;62090;52.330;9.104;2022-12-18T01:34:01;21.67;;;13.88;;
3131;SDS011;62090;52.330;9.104;2022-12-18T01:36:36;22.50;;;15.10;;
3131;SDS011;62090;52.330;9.104;2022-12-18T01:39:09;20.88;;;14.07;;
3131;SDS011;62090;52.330;9.104;2022-12-18T01:41:41;23.27;;;14.40;;
3131;SDS011;62090;52.330;9.104;2022-12-18T01:47:31;18.80;;;13.57;;
3131;SDS011;62090;52.330;9.104;2022-12-18T01:50:07;21.35;;;14.05;;
3131;SDS011;62090;52.330;9.104;2022-12-18T01:52:43;24.52;;;15.38;;
3131;SDS011;62090;52.330;9.104;2022-12-18T01:55:16;23.60;;;13.85;;
3131;SDS011;62090;52.330;9.104;2022-12-18T01:57:48;18.65;;;12.60;;
3131;SDS011;62090;52.330;9.104;2022-12-18T02:00:21;20.52;;;13.02;;
3131;SDS011;62090;52.330;9.104;2022-12-18T02:02:53;17.98;;;12.77;;
3131;SDS011;62090;52.330;9.104;2022-12-18T02:05:26;44.55;;;23.42;;
3131;SDS011;62090;52.330;9.104;2022-12-18T02:08:09;46.25;;;23.98;;
3131;SDS011;62090;52.330;9.104;2022-12-18T02:10:45;29.70;;;17.05;;
3131;SDS011;62090;52.330;9.104;2022-12-18T02:13:24;19.08;;;12.73;;
3131;SDS011;62090;52.330;9.104;2022-12-18T02:16:02;20.55;;;12.95;;
3131;SDS011;62090;52.330;9.104;2022-12-18T02:18:40;22.33;;;14.20;;
3131;SDS011;62090;52.330;9.104;2022-12-18T02:21:18;22.30;;;13.68;;
3131;SDS011;62090;52.330;9.104;2022-12-18T02:24:01;23.35;;;13.63;;
3131;SDS011;62090;52.330;9.104;2022-12-18T02:26:46;27.40;;;16.58;;
3131;SDS011;62090;52.330;9.104;2022-12-18T02:29:22;30.20;;;18.95;;
3131;SDS011;62090;52.330;9.104;2022-12-18T02:31:56;23.45;;;15.98;;
3131;SDS011;62090;52.330;9.104;2022-12-18T02:34:29;17.33;;;12.45;;
3131;SDS011;62090;52.330;9.104;2022-12-18T02:37:03;18.27;;;12.20;;
3131;SDS011;62090;52.330;9.104;2022-12-18T02:39:37;21.27;;;12.88;;
3131;SDS011;62090;52.330;9.104;2022-12-18T02:42:14;16.50;;;11.68;;
3131;SDS011;62090;52.330;9.104;2022-12-18T02:44:48;16.85;;;11.93;;
3131;SDS011;62090;52.330;9.104;2022-12-18T02:47:24;17.20;;;12.18;;
3131;SDS011;62090;52.330;9.104;2022-12-18T02:49:58;15.18;;;11.10;;
3131;SDS011;62090;52.330;9.104;2022-12-18T02:52:38;25.52;;;10.43;;
3131;SDS011;62090;52.330;9.104;2022-12-18T02:55:17;16.40;;;11.02;;
3131;SDS011;62090;52.330;9.104;2022-12-18T02:58:05;16.13;;;11.00;;
3131;SDS011;62090;52.330;9.104;2022-12-18T03:00:43;15.60;;;11.13;;
3131;SDS011;62090;52.330;9.104;2022-12-18T03:03:21;22.08;;;10.77;;
3131;SDS011;62090;52.330;9.104;2022-12-18T03:05:57;14.20;;;9.27;;
3131;SDS011;62090;52.330;9.104;2022-12-18T03:08:31;13.20;;;9.77;;
3131;SDS011;62090;52.330;9.104;2022-12-18T03:11:07;12.75;;;9.15;;
3131;SDS011;62090;52.330;9.104;2022-12-18T03:13:43;16.77;;;9.82;;
3131;SDS011;62090;52.330;9.104;2022-12-18T03:16:17;14.38;;;11.38;;
3131;SDS011;62090;52.330;9.104;2022-12-18T03:18:52;12.45;;;9.10;;
3131;SDS011;62090;52.330;9.104;2022-12-18T03:21:28;14.43;;;9.90;;
3131;SDS011;62090;52.330;9.104;2022-12-18T03:24:03;16.10;;;9.80;;
3131;SDS011;62090;52.330;9.104;2022-12-18T03:26:35;15.82;;;9.80;;
3131;SDS011;62090;52.330;9.104;2022-12-18T03:29:12;14.05;;;9.32;;
3131;SDS011;62090;52.330;9.104;2022-12-18T03:31:48;13.65;;;9.80;;
3131;SDS011;62090;52.330;9.104;2022-12-18T03:34:23;15.23;;;10.40;;
3131;SDS011;62090;52.330;9.104;2022-12-18T03:37:01;14.80;;;10.10;;
3131;SDS011;62090;52.330;9.104;2022-12-18T03:39:31;14.10;;;9.27;;
3131;SDS011;62090;52.330;9.104;2022-12-18T03:42:04;12.02;;;9.05;;
3131;SDS011;62090;52.330;9.104;2022-12-18T03:44:47;13.90;;;9.52;;
3131;SDS011;62090;52.330;9.104;2022-12-18T03:47:26;11.75;;;9.48;;
3131;SDS011;62090;52.330;9.104;2022-12-18T03:50:03;16.48;;;9.65;;
3131;SDS011;62090;52.330;9.104;2022-12-18T03:52:41;11.63;;;8.73;;
3131;SDS011;62090;52.330;9.104;2022-12-18T03:55:16;10.35;;;8.32;;
3131;SDS011;62090;52.330;9.104;2022-12-18T03:57:55;12.48;;;9.07;;
3131;SDS011;62090;52.330;9.104;2022-12-18T04:00:36;11.20;;;8.30;;
3131;SDS011;62090;52.330;9.104;2022-12-18T04:03:08;12.63;;;8.50;;
3131;SDS011;62090;52.330;9.104;2022-12-18T04:05:44;12.40;;;8.70;;
3131;SDS011;62090;52.330;9.104;2022-12-18T04:08:17;11.60;;;8.45;;
3131;SDS011;62090;52.330;9.104;2022-12-18T04:10:58;11.65;;;8.60;;
3131;SDS011;62090;52.330;9.104;2022-12-18T04:13:29;10.77;;;7.88;;
3131;SDS011;62090;52.330;9.104;2022-12-18T04:16:10;12.65;;;8.93;;
3131;SDS011;62090;52.330;9.104;2022-12-18T04:18:42;10.10;;;8.25;;
3131;SDS011;62090;52.330;9.104;2022-12-18T04:21:13;13.52;;;9.40;;
3131;SDS011;62090;52.330;9.104;2022-12-18T04:23:45;13.35;;;8.82;;
3131;SDS011;62090;52.330;9.104;2022-12-18T04:26:18;10.23;;;8.13;;
3131;SDS011;62090;52.330;9.104;2022-12-18T04:29:14;10.23;;;7.97;;
3131;SDS011;62090;52.330;9.104;2022-12-18T04:31:47;10.20;;;7.93;;
3131;SDS011;62090;52.330;9.104;2022-12-18T04:34:18;10.52;;;8.05;;
3131;SDS011;62090;52.330;9.104;2022-12-18T04:36:51;9.63;;;7.72;;
3131;SDS011;62090;52.330;9.104;2022-12-18T04:39:22;13.45;;;8.15;;
3131;SDS011;62090;52.330;9.104;2022-12-18T04:41:55;11.38;;;7.60;;
3131;SDS011;62090;52.330;9.104;2022-12-18T04:44:24;13.10;;;8.90;;
3131;SDS011;62090;52.330;9.104;2022-12-18T04:46:57;10.77;;;8.00;;
3131;SDS011;62090;52.330;9.104;2022-12-18T04:49:26;10.75;;;7.85;;
3131;SDS011;62090;52.330;9.104;2022-12-18T04:51:56;11.55;;;8.13;;
3131;SDS011;62090;52.330;9.104;2022-12-18T04:54:27;13.80;;;8.90;;
3131;SDS011;62090;52.330;9.104;2022-12-18T04:56:57;12.15;;;8.23;;
3131;SDS011;62090;52.330;9.104;2022-12-18T04:59:26;12.95;;;9.07;;
3131;SDS011;62090;52.330;9.104;2022-12-18T05:01:59;10.23;;;7.90;;
3131;SDS011;62090;52.330;9.104;2022-12-18T05:04:29;12.43;;;8.00;;
3131;SDS011;62090;52.330;9.104;2022-12-18T05:06:59;10.32;;;7.40;;
3131;SDS011;62090;52.330;9.104;2022-12-18T05:09:29;13.30;;;9.02;;
3131;SDS011;62090;52.330;9.104;2022-12-18T05:11:59;12.88;;;9.00;;
3131;SDS011;62090;52.330;9.104;2022-12-18T05:14:28;10.80;;;8.00;;
3131;SDS011;62090;52.330;9.104;2022-12-18T05:17:01;15.15;;;8.65;;
3131;SDS011;62090;52.330;9.104;2022-12-18T05:19:31;11.73;;;7.95;;
3131;SDS011;62090;52.330;9.104;2022-12-18T05:22:01;10.75;;;8.05;;
3131;SDS011;62090;52.330;9.104;2022-12-18T05:24:30;12.10;;;8.63;;
3131;SDS011;62090;52.330;9.104;2022-12-18T05:27:00;11.27;;;8.00;;
3131;SDS011;62090;52.330;9.104;2022-12-18T05:29:30;11.63;;;7.75;;
3131;SDS011;62090;52.330;9.104;2022-12-18T05:32:02;13.88;;;9.25;;
3131;SDS011;62090;52.330;9.104;2022-12-18T05:34:33;10.85;;;8.60;;
3131;SDS011;62090;52.330;9.104;2022-12-18T05:37:02;10.57;;;7.75;;
3131;SDS011;62090;52.330;9.104;2022-12-18T05:39:32;11.27;;;7.85;;
3131;SDS011;62090;52.330;9.104;2022-12-18T05:42:02;11.35;;;7.20;;
3131;SDS011;62090;52.330;9.104;2022-12-18T05:44:32;11.15;;;8.10;;
3131;SDS011;62090;52.330;9.104;2022-12-18T05:47:04;11.60;;;8.30;;
3131;SDS011;62090;52.330;9.104;2022-12-18T05:49:34;9.73;;;7.75;;
3131;SDS011;62090;52.330;9.104;2022-12-18T05:52:04;9.60;;;7.15;;
3131;SDS011;62090;52.330;9.104;2022-12-18T05:54:34;9.25;;;7.40;;
3131;SDS011;62090;52.330;9.104;2022-12-18T05:57:04;11.10;;;7.70;;
3131;SDS011;62090;52.330;9.104;2022-12-18T05:59:33;10.40;;;7.53;;
3131;SDS011;62090;52.330;9.104;2022-12-18T06:02:06;11.20;;;8.05;;
3131;SDS011;62090;52.330;9.104;2022-12-18T06:04:36;13.52;;;8.82;;
3131;SDS011;62090;52.330;9.104;2022-12-18T06:07:06;10.70;;;8.52;;
3131;SDS011;62090;52.330;9.104;2022-12-18T06:09:36;9.45;;;7.63;;
3131;SDS011;62090;52.330;9.104;2022-12-18T06:12:06;12.38;;;7.78;;
3131;SDS011;62090;52.330;9.104;2022-12-18T06:14:36;12.57;;;8.45;;
3131;SDS011;62090;52.330;9.104;2022-12-18T06:17:08;10.43;;;7.45;;
3131;SDS011;62090;52.330;9.104;2022-12-18T06:19:38;11.75;;;8.00;;
3131;SDS011;62090;52.330;9.104;2022-12-18T06:22:08;10.02;;;7.05;;
3131;SDS011;62090;52.330;9.104;2022-12-18T06:24:37;11.35;;;7.97;;
3131;SDS011;62090;52.330;9.104;2022-12-18T06:27:07;9.82;;;6.55;;
3131;SDS011;62090;52.330;9.104;2022-12-18T06:29:37;11.77;;;7.53;;
3131;SDS011;62090;52.330;9.104;2022-12-18T06:32:09;8.73;;;6.78;;
3131;SDS011;62090;52.330;9.104;2022-12-18T06:34:40;9.80;;;7.03;;
3131;SDS011;62090;52.330;9.104;2022-12-18T06:37:10;8.27;;;6.50;;
3131;SDS011;62090;52.330;9.104;2022-12-18T06:39:40;9.80;;;6.50;;
3131;SDS011;62090;52.330;9.104;2022-12-18T06:42:09;9.68;;;6.90;;
3131;SDS011;62090;52.330;9.104;2022-12-18T06:44:39;13.45;;;7.22;;
3131;SDS011;62090;52.330;9.104;2022-12-18T06:47:11;11.30;;;7.55;;
3131;SDS011;62090;52.330;9.104;2022-12-18T06:49:41;9.20;;;6.20;;
3131;SDS011;62090;52.330;9.104;2022-12-18T06:52:12;11.10;;;6.60;;
3131;SDS011;62090;52.330;9.104;2022-12-18T06:54:41;9.25;;;7.25;;
3131;SDS011;62090;52.330;9.104;2022-12-18T06:57:11;8.00;;;6.28;;
3131;SDS011;62090;52.330;9.104;2022-12-18T06:59:41;9.02;;;6.65;;
3131;SDS011;62090;52.330;9.104;2022-12-18T07:02:14;8.02;;;6.65;;
3131;SDS011;62090;52.330;9.104;2022-12-18T07:04:44;10.55;;;7.03;;
3131;SDS011;62090;52.330;9.104;2022-12-18T07:07:13;9.80;;;6.75;;
3131;SDS011;62090;52.330;9.104;2022-12-18T07:09:43;9.48;;;7.13;;
3131;SDS011;62090;52.330;9.104;2022-12-18T07:12:13;9.85;;;7.80;;
3131;SDS011;62090;52.330;9.104;2022-12-18T07:14:43;14.00;;;7.95;;
3131;SDS011;62090;52.330;9.104;2022-12-18T07:17:16;11.18;;;7.15;;
3131;SDS011;62090;52.330;9.104;2022-12-18T07:19:45;12.57;;;7.97;;
3131;SDS011;62090;52.330;9.104;2022-12-18T07:22:15;10.75;;;7.80;;
3131;SDS011;62090;52.330;9.104;2022-12-18T07:24:45;11.15;;;7.82;;
3131;SDS011;62090;52.330;9.104;2022-12-18T07:27:15;11.65;;;7.82;;
3131;SDS011;62090;52.330;9.104;2022-12-18T07:29:45;11.88;;;7.65;;
3131;SDS011;62090;52.330;9.104;2022-12-18T07:32:19;9.30;;;7.32;;
3131;SDS011;62090;52.330;9.104;2022-12-18T07:34:49;10.82;;;7.85;;
3131;SDS011;62090;52.330;9.104;2022-12-18T07:37:23;10.55;;;7.25;;
3131;SDS011;62090;52.330;9.104;2022-12-18T07:39:53;10.80;;;8.23;;
3131;SDS011;62090;52.330;9.104;2022-12-18T07:42:24;10.85;;;7.70;;
3131;SDS011;62090;52.330;9.104;2022-12-18T07:45:01;18.38;;;8.77;;
3131;SDS011;62090;52.330;9.104;2022-12-18T07:47:36;12.95;;;8.50;;
3131;SDS011;62090;52.330;9.104;2022-12-18T07:50:07;13.25;;;9.60;;
3131;SDS011;62090;52.330;9.104;2022-12-18T07:52:43;15.45;;;10.50;;
3131;SDS011;62090;52.330;9.104;2022-12-18T07:55:17;12.75;;;9.20;;
3131;SDS011;62090;52.330;9.104;2022-12-18T07:57:48;18.55;;;10.90;;
3131;SDS011;62090;52.330;9.104;2022-12-18T08:00:28;14.52;;;9.73;;
3131;SDS011;62090;52.330;9.104;2022-12-18T08:03:04;12.70;;;9.35;;
3131;SDS011;62090;52.330;9.104;2022-12-18T08:05:33;13.57;;;9.10;;
3131;SDS011;62090;52.330;9.104;2022-12-18T08:08:03;10.93;;;9.02;;
3131;SDS011;62090;52.330;9.104;2022-12-18T08:10:37;14.10;;;8.75;;
3131;SDS011;62090;52.330;9.104;2022-12-18T08:13:07;11.68;;;9.30;;
3131;SDS011;62090;52.330;9.104;2022-12-18T08:15:37;12.57;;;8.73;;
3131;SDS011;62090;52.330;9.104;2022-12-18T08:18:14;11.82;;;8.50;;
3131;SDS011;62090;52.330;9.104;2022-12-18T08:20:44;11.35;;;7.93;;
3131;SDS011;62090;52.330;9.104;2022-12-18T08:23:19;13.80;;;9.30;;
3131;SDS011;62090;52.330;9.104;2022-12-18T08:25:54;36.30;;;20.60;;
3131;SDS011;62090;52.330;9.104;2022-12-18T08:28:23;68.30;;;36.45;;
3131;SDS011;62090;52.330;9.104;2022-12-18T08:30:53;29.15;;;17.10;;
3131;SDS011;62090;52.330;9.104;2022-12-18T08:33:31;17.77;;;12.73;;
3131;SDS011;62090;52.330;9.104;2022-12-18T08:36:01;14.77;;;9.80;;
3131;SDS011;62090;52.330;9.104;2022-12-18T08:38:35;14.73;;;10.00;;
3131;SDS011;62090;52.330;9.104;2022-12-18T08:41:10;14.50;;;9.50;;
3131;SDS011;62090;52.330;9.104;2022-12-18T08:43:45;14.38;;;10.02;;
3131;SDS011;62090;52.330;9.104;2022-12-18T08:46:31;14.48;;;10.65;;
3131;SDS011;62090;52.330;9.104;2022-12-18T08:49:08;17.52;;;11.60;;
3131;SDS011;62090;52.330;9.104;2022-12-18T08:51:39;17.35;;;12.07;;
3131;SDS011;62090;52.330;9.104;2022-12-18T08:54:11;15.18;;;11.70;;
3131;SDS011;62090;52.330;9.104;2022-12-18T08:56:45;17.50;;;11.55;;
3131;SDS011;62090;52.330;9.104;2022-12-18T08:59:16;16.25;;;11.57;;
3131;SDS011;62090;52.330;9.104;2022-12-18T09:01:47;23.45;;;12.68;;
3131;SDS011;62090;52.330;9.104;2022-12-18T09:04:22;19.77;;;12.43;;
3131;SDS011;62090;52.330;9.104;2022-12-18T09:06:53;20.77;;;12.65;;
3131;SDS011;62090;52.330;9.104;2022-12-18T09:09:25;17.23;;;12.20;;
3131;SDS011;62090;52.330;9.104;2022-12-18T09:11:56;15.32;;;11.82;;
3131;SDS011;62090;52.330;9.104;2022-12-18T09:17:04;19.75;;;12.00;;
3131;SDS011;62090;52.330;9.104;2022-12-18T09:19:37;15.82;;;12.18;;
3131;SDS011;62090;52.330;9.104;2022-12-18T09:22:10;15.93;;;12.35;;
3131;SDS011;62090;52.330;9.104;2022-12-18T09:24:43;18.85;;;13.55;;
3131;SDS011;62090;52.330;9.104;2022-12-18T09:27:16;16.77;;;12.57;;
3131;SDS011;62090;52.330;9.104;2022-12-18T09:29:48;14.18;;;10.43;;
3131;SDS011;62090;52.330;9.104;2022-12-18T09:32:19;11.23;;;8.57;;
3131;SDS011;62090;52.330;9.104;2022-12-18T09:34:55;13.90;;;9.50;;
3131;SDS011;62090;52.330;9.104;2022-12-18T09:37:28;11.05;;;8.52;;
3131;SDS011;62090;52.330;9.104;2022-12-18T09:39:58;8.77;;;5.55;;
3131;SDS011;62090;52.330;9.104;2022-12-18T09:42:32;7.15;;;5.15;;
3131;SDS011;62090;52.330;9.104;2022-12-18T09:45:03;4.78;;;4.28;;
3131;SDS011;62090;52.330;9.104;2022-12-18T09:47:34;6.00;;;4.30;;
3131;SDS011;62090;52.330;9.104;2022-12-18T09:50:16;5.65;;;3.70;;
3131;SDS011;62090;52.330;9.104;2022-12-18T09:52:58;6.30;;;4.20;;
3131;SDS011;62090;52.330;9.104;2022-12-18T09:55:35;7.00;;;3.95;;
3131;SDS011;62090;52.330;9.104;2022-12-18T09:58:12;5.78;;;4.00;;
3131;SDS011;62090;52.330;9.104;2022-12-18T10:00:46;5.65;;;3.17;;
3131;SDS011;62090;52.330;9.104;2022-12-18T10:03:17;3.83;;;2.90;;
3131;SDS011;62090;52.330;9.104;2022-12-18T10:05:52;4.55;;;2.67;;
3131;SDS011;62090;52.330;9.104;2022-12-18T10:08:30;5.57;;;3.25;;
3131;SDS011;62090;52.330;9.104;2022-12-18T10:11:17;4.88;;;2.90;;
3131;SDS011;62090;52.330;9.104;2022-12-18T10:14:00;5.00;;;2.90;;
3131;SDS011;62090;52.330;9.104;2022-12-18T10:16:40;4.82;;;2.92;;
3131;SDS011;62090;52.330;9.104;2022-12-18T10:19:28;3.72;;;2.80;;
3131;SDS011;62090;52.330;9.104;2022-12-18T10:22:14;5.88;;;3.28;;
3131;SDS011;62090;52.330;9.104;2022-12-18T10:24:53;4.00;;;3.30;;
3131;SDS011;62090;52.330;9.104;2022-12-18T10:27:32;4.85;;;3.47;;
3131;SDS011;62090;52.330;9.104;2022-12-18T10:30:04;7.50;;;4.20;;
3131;SDS011;62090;52.330;9.104;2022-12-18T10:32:42;6.57;;;3.63;;
3131;SDS011;62090;52.330;9.104;2022-12-18T10:35:14;6.05;;;3.00;;
3131;SDS011;62090;52.330;9.104;2022-12-18T10:38:04;3.10;;;2.40;;
3131;SDS011;62090;52.330;9.104;2022-12-18T10:40:47;5.40;;;3.10;;
3131;SDS011;62090;52.330;9.104;2022-12-18T10:43:21;4.47;;;3.10;;
3131;SDS011;62090;52.330;9.104;2022-12-18T10:46:00;4.20;;;2.40;;
3131;SDS011;62090;52.330;9.104;2022-12-18T10:48:52;9.52;;;3.28;;
3131;SDS011;62090;52.330;9.104;2022-12-18T10:51:26;9.90;;;3.45;;
3131;SDS011;62090;52.330;9.104;2022-12-18T10:54:01;3.85;;;2.83;;
3131;SDS011;62090;52.330;9.104;2022-12-18T10:56:34;3.75;;;2.78;;
3131;SDS011;62090;52.330;9.104;2022-12-18T10:59:10;4.80;;;2.95;;
3131;SDS011;62090;52.330;9.104;2022-12-18T11:01:50;16.77;;;9.95;;
3131;SDS011;62090;52.330;9.104;2022-12-18T11:04:23;5.55;;;4.22;;
3131;SDS011;62090;52.330;9.104;2022-12-18T11:06:58;4.75;;;3.33;;
3131;SDS011;62090;52.330;9.104;2022-12-18T11:09:33;3.83;;;3.33;;
3131;SDS011;62090;52.330;9.104;2022-12-18T11:12:05;5.32;;;3.40;;
3131;SDS011;62090;52.330;9.104;2022-12-18T11:14:45;6.20;;;3.50;;
3131;SDS011;62090;52.330;9.104;2022-12-18T11:17:18;6.65;;;3.55;;
3131;SDS011;62090;52.330;9.104;2022-12-18T11:22:31;3.35;;;2.85;;
3131;SDS011;62090;52.330;9.104;2022-12-18T11:25:16;4.65;;;3.35;;
3131;SDS011;62090;52.330;9.104;2022-12-18T11:28:03;4.32;;;3.25;;
3131;SDS011;62090;52.330;9.104;2022-12-18T11:30:36;4.03;;;3.00;;
3131;SDS011;62090;52.330;9.104;2022-12-18T11:33:09;8.18;;;2.90;;
3131;SDS011;62090;52.330;9.104;2022-12-18T11:35:46;6.18;;;3.10;;
3131;SDS011;62090;52.330;9.104;2022-12-18T11:38:24;4.05;;;3.00;;
3131;SDS011;62090;52.330;9.104;2022-12-18T11:40:59;5.68;;;4.20;;
3131;SDS011;62090;52.330;9.104;2022-12-18T11:43:33;7.20;;;4.00;;
3131;SDS011;62090;52.330;9.104;2022-12-18T11:46:11;7.57;;;4.07;;
3131;SDS011;62090;52.330;9.104;2022-12-18T11:48:49;8.57;;;3.20;;
3131;SDS011;62090;52.330;9.104;2022-12-18T11:51:31;6.78;;;3.67;;
3131;SDS011;62090;52.330;9.104;2022-12-18T11:54:09;5.87;;;4.40;;
3131;SDS011;62090;52.330;9.104;2022-12-18T11:56:49;6.70;;;4.13;;
3131;SDS011;62090;52.330;9.104;2022-12-18T11:59:28;7.60;;;4.70;;
3131;SDS011;62090;52.330;9.104;2022-12-18T12:02:12;7.82;;;5.15;;
3131;SDS011;62090;52.330;9.104;2022-12-18T12:05:05;6.95;;;4.88;;
3131;SDS011;62090;52.330;9.104;2022-12-18T12:07:50;8.30;;;5.07;;
3131;SDS011;62090;52.330;9.104;2022-12-18T12:10:33;7.78;;;5.22;;
3131;SDS011;62090;52.330;9.104;2022-12-18T12:16:15;7.70;;;5.15;;
3131;SDS011;62090;52.330;9.104;2022-12-18T12:18:54;9.63;;;6.60;;
3131;SDS011;62090;52.330;9.104;2022-12-18T12:21:36;7.95;;;5.05;;
3131;SDS011;62090;52.330;9.104;2022-12-18T12:24:12;8.10;;;5.63;;
3131;SDS011;62090;52.330;9.104;2022-12-18T12:27:00;9.63;;;5.82;;
3131;SDS011;62090;52.330;9.104;2022-12-18T12:29:45;10.20;;;6.35;;
3131;SDS011;62090;52.330;9.104;2022-12-18T12:32:35;10.50;;;5.88;;
3131;SDS011;62090;52.330;9.104;2022-12-18T12:35:21;10.35;;;6.05;;
3131;SDS011;62090;52.330;9.104;2022-12-18T12:38:03;16.55;;;8.65;;
3131;SDS011;62090;52.330;9.104;2022-12-18T12:40:38;11.27;;;6.45;;
3131;SDS011;62090;52.330;9.104;2022-12-18T12:43:27;8.35;;;5.43;;
3131;SDS011;62090;52.330;9.104;2022-12-18T12:46:07;11.48;;;5.28;;
3131;SDS011;62090;52.330;9.104;2022-12-18T12:48:41;9.30;;;5.97;;
3131;SDS011;62090;52.330;9.104;2022-12-18T12:51:16;6.45;;;5.25;;
3131;SDS011;62090;52.330;9.104;2022-12-18T12:53:48;9.68;;;5.25;;
3131;SDS011;62090;52.330;9.104;2022-12-18T12:56:19;7.45;;;4.75;;
3131;SDS011;62090;52.330;9.104;2022-12-18T12:58:56;6.68;;;5.10;;
3131;SDS011;62090;52.330;9.104;2022-12-18T13:01:38;11.50;;;5.50;;
3131;SDS011;62090;52.330;9.104;2022-12-18T13:04:21;7.53;;;4.90;;
3131;SDS011;62090;52.330;9.104;2022-12-18T13:06:58;10.40;;;5.97;;
3131;SDS011;62090;52.330;9.104;2022-12-18T13:09:34;16.15;;;5.75;;
3131;SDS011;62090;52.330;9.104;2022-12-18T13:12:52;6.03;;;4.43;;
3131;SDS011;62090;52.330;9.104;2022-12-18T13:15:25;10.32;;;5.20;;
3131;SDS011;62090;52.330;9.104;2022-12-18T13:18:22;8.13;;;4.80;;
3131;SDS011;62090;52.330;9.104;2022-12-18T13:21:02;6.45;;;4.80;;
3131;SDS011;62090;52.330;9.104;2022-12-18T13:23:37;9.80;;;6.22;;
3131;SDS011;62090;52.330;9.104;2022-12-18T13:29:05;9.10;;;4.83;;
3131;SDS011;62090;52.330;9.104;2022-12-18T13:34:37;7.30;;;4.40;;
3131;SDS011;62090;52.330;9.104;2022-12-18T13:43:27;9.07;;;6.47;;
3131;SDS011;62090;52.330;9.104;2022-12-18T13:46:02;11.48;;;7.90;;
3131;SDS011;62090;52.330;9.104;2022-12-18T13:48:49;8.38;;;6.18;;
3131;SDS011;62090;52.330;9.104;2022-12-18T13:51:24;8.98;;;5.97;;
3131;SDS011;62090;52.330;9.104;2022-12-18T13:53:56;6.88;;;4.80;;
3131;SDS011;62090;52.330;9.104;2022-12-18T13:56:32;6.13;;;4.30;;
3131;SDS011;62090;52.330;9.104;2022-12-18T13:59:33;5.65;;;3.90;;
3131;SDS011;62090;52.330;9.104;2022-12-18T14:02:07;6.85;;;4.07;;
3131;SDS011;62090;52.330;9.104;2022-12-18T14:04:44;7.18;;;5.15;;
3131;SDS011;62090;52.330;9.104;2022-12-18T14:07:18;8.57;;;5.40;;
3131;SDS011;62090;52.330;9.104;2022-12-18T14:09:50;7.95;;;5.15;;
3131;SDS011;62090;52.330;9.104;2022-12-18T14:12:44;9.68;;;4.78;;
3131;SDS011;62090;52.330;9.104;2022-12-18T14:15:31;9.60;;;5.20;;
3131;SDS011;62090;52.330;9.104;2022-12-18T14:18:12;8.38;;;5.97;;
3131;SDS011;62090;52.330;9.104;2022-12-18T14:20:49;14.85;;;7.35;;
3131;SDS011;62090;52.330;9.104;2022-12-18T14:23:33;6.85;;;4.75;;
3131;SDS011;62090;52.330;9.104;2022-12-18T14:26:19;6.28;;;4.78;;
3131;SDS011;62090;52.330;9.104;2022-12-18T14:28:55;5.73;;;4.20;;
3131;SDS011;62090;52.330;9.104;2022-12-18T14:31:31;10.40;;;7.47;;
3131;SDS011;62090;52.330;9.104;2022-12-18T14:34:01;6.20;;;4.50;;
3131;SDS011;62090;52.330;9.104;2022-12-18T14:36:31;5.10;;;3.95;;
3131;SDS011;62090;52.330;9.104;2022-12-18T14:39:04;14.75;;;8.15;;
3131;SDS011;62090;52.330;9.104;2022-12-18T14:41:34;51.50;;;32.20;;
3131;SDS011;62090;52.330;9.104;2022-12-18T14:44:05;15.65;;;9.13;;
3131;SDS011;62090;52.330;9.104;2022-12-18T14:46:41;9.65;;;6.38;;
3131;SDS011;62090;52.330;9.104;2022-12-18T14:49:18;5.68;;;4.28;;
3131;SDS011;62090;52.330;9.104;2022-12-18T14:51:52;7.43;;;4.75;;
3131;SDS011;62090;52.330;9.104;2022-12-18T14:54:27;13.57;;;9.05;;
3131;SDS011;62090;52.330;9.104;2022-12-18T14:57:03;9.75;;;5.63;;
3131;SDS011;62090;52.330;9.104;2022-12-18T14:59:36;13.77;;;5.90;;
3131;SDS011;62090;52.330;9.104;2022-12-18T15:02:10;8.48;;;5.63;;
3131;SDS011;62090;52.330;9.104;2022-12-18T15:04:48;11.68;;;7.80;;
3131;SDS011;62090;52.330;9.104;2022-12-18T15:07:41;6.45;;;4.57;;
3131;SDS011;62090;52.330;9.104;2022-12-18T15:10:17;8.52;;;5.95;;
3131;SDS011;62090;52.330;9.104;2022-12-18T15:12:49;34.47;;;18.58;;
3131;SDS011;62090;52.330;9.104;2022-12-18T15:15:44;38.60;;;24.77;;
3131;SDS011;62090;52.330;9.104;2022-12-18T15:18:16;28.88;;;19.67;;
3131;SDS011;62090;52.330;9.104;2022-12-18T15:20:52;13.25;;;7.88;;
3131;SDS011;62090;52.330;9.104;2022-12-18T15:23:24;15.67;;;8.20;;
3131;SDS011;62090;52.330;9.104;2022-12-18T15:25:58;9.77;;;5.67;;
3131;SDS011;62090;52.330;9.104;2022-12-18T15:28:31;16.13;;;8.73;;
3131;SDS011;62090;52.330;9.104;2022-12-18T15:31:17;21.60;;;10.75;;
3131;SDS011;62090;52.330;9.104;2022-12-18T15:34:12;23.38;;;12.07;;
3131;SDS011;62090;52.330;9.104;2022-12-18T15:36:49;13.35;;;7.72;;
3131;SDS011;62090;52.330;9.104;2022-12-18T15:39:20;11.93;;;6.07;;
3131;SDS011;62090;52.330;9.104;2022-12-18T15:41:54;6.32;;;5.03;;
3131;SDS011;62090;52.330;9.104;2022-12-18T15:44:37;8.10;;;5.30;;
3131;SDS011;62090;52.330;9.104;2022-12-18T15:47:09;7.93;;;5.35;;
3131;SDS011;62090;52.330;9.104;2022-12-18T15:49:42;7.97;;;5.65;;
3131;SDS011;62090;52.330;9.104;2022-12-18T15:52:13;8.38;;;5.80;;
3131;SDS011;62090;52.330;9.104;2022-12-18T15:54:52;7.70;;;4.90;;
3131;SDS011;62090;52.330;9.104;2022-12-18T15:57:37;6.32;;;5.10;;
3131;SDS011;62090;52.330;9.104;2022-12-18T16:00:11;6.75;;;4.85;;
3131;SDS011;62090;52.330;9.104;2022-12-18T16:02:43;11.57;;;7.50;;
3131;SDS011;62090;52.330;9.104;2022-12-18T16:05:15;11.93;;;8.50;;
3131;SDS011;62090;52.330;9.104;2022-12-18T16:07:46;8.95;;;6.22;;